sensor_id;sensor_type;location;lat;lon;timestamp;P1;durP1;ratioP1;P2;durP2;ratioP2
69417;SDS011;56610;48.872;2.400;2023-04-25T00:01:14;3.53;;;1.90;;
69417;SDS011;56610;48.872;2.400;2023-04-25T00:03:39;4.43;;;1.48;;
69417;SDS011;56610;48.872;2.400;2023-04-25T00:06:05;3.20;;;1.65;;
69417;SDS011;56610;48.872;2.400;2023-04-25T00:08:32;2.83;;;1.75;;
69417;SDS011;56610;48.872;2.400;2023-04-25T00:10:58;5.60;;;1.85;;
69417;SDS011;56610;48.872;2.400;2023-04-25T00:13:24;3.33;;;1.67;;
69417;SDS011;56610;48.872;2.400;2023-04-25T00:15:51;2.45;;;1.63;;
69417;SDS011;56610;48.872;2.400;2023-04-25T00:18:18;3.90;;;1.60;;
69417;SDS011;56610;48.872;2.400;2023-04-25T00:20:44;3.58;;;1.70;;
69417;SDS011;56610;48.872;2.400;2023-04-25T00:23:15;2.33;;;1.63;;
69417;SDS011;56610;48.872;2.400;2023-04-25T00:25:48;3.67;;;1.80;;
69417;SDS011;56610;48.872;2.400;2023-04-25T00:28:15;4.63;;;2.08;;
69417;SDS011;56610;48.872;2.400;2023-04-25T00:30:41;5.13;;;1.60;;
69417;SDS011;56610;48.872;2.400;2023-04-25T00:33:08;3.55;;;1.88;;
69417;SDS011;56610;48.872;2.400;2023-04-25T00:35:34;4.72;;;1.92;;
69417;SDS011;56610;48.872;2.400;2023-04-25T00:38:00;4.13;;;1.85;;
69417;SDS011;56610;48.872;2.400;2023-04-25T00:40:26;3.40;;;1.90;;
69417;SDS011;56610;48.872;2.400;2023-04-25T00:42:52;2.50;;;1.70;;
69417;SDS011;56610;48.872;2.400;2023-04-25T00:45:18;5.65;;;1.80;;
69417;SDS011;56610;48.872;2.400;2023-04-25T00:47:44;4.25;;;1.98;;
69417;SDS011;56610;48.872;2.400;2023-04-25T00:50:10;3.40;;;1.92;;
69417;SDS011;56610;48.872;2.400;2023-04-25T00:52:40;4.35;;;1.92;;
69417;SDS011;56610;48.872;2.400;2023-04-25T00:55:08;3.83;;;1.80;;
69417;SDS011;56610;48.872;2.400;2023-04-25T00:57:38;5.88;;;2.13;;
69417;SDS011;56610;48.872;2.400;2023-04-25T01:00:04;3.17;;;1.75;;
69417;SDS011;56610;48.872;2.400;2023-04-25T01:02:31;4.75;;;2.25;;
69417;SDS011;56610;48.872;2.400;2023-04-25T01:04:58;4.13;;;2.15;;
69417;SDS011;56610;48.872;2.400;2023-04-25T01:07:24;5.47;;;2.30;;
69417;SDS011;56610;48.872;2.400;2023-04-25T01:09:51;3.70;;;1.70;;
69417;SDS011;56610;48.872;2.400;2023-04-25T01:12:17;4.03;;;2.25;;
69417;SDS011;56610;48.872;2.400;2023-04-25T01:14:42;5.72;;;1.80;;
69417;SDS011;56610;48.872;2.400;2023-04-25T01:17:09;5.78;;;2.20;;
69417;SDS011;56610;48.872;2.400;2023-04-25T01:19:35;4.32;;;1.88;;
69417;SDS011;56610;48.872;2.400;2023-04-25T01:22:01;4.05;;;1.88;;
69417;SDS011;56610;48.872;2.400;2023-04-25T01:24:26;3.67;;;1.85;;
69417;SDS011;56610;48.872;2.400;2023-04-25T01:26:53;4.40;;;2.20;;
69417;SDS011;56610;48.872;2.400;2023-04-25T01:29:21;4.28;;;1.90;;
69417;SDS011;56610;48.872;2.400;2023-04-25T01:31:48;6.68;;;2.45;;
69417;SDS011;56610;48.872;2.400;2023-04-25T01:34:14;3.78;;;2.00;;
69417;SDS011;56610;48.872;2.400;2023-04-25T01:36:40;5.43;;;2.10;;
69417;SDS011;56610;48.872;2.400;2023-04-25T01:39:06;5.97;;;2.22;;
69417;SDS011;56610;48.872;2.400;2023-04-25T01:41:32;5.63;;;2.22;;
69417;SDS011;56610;48.872;2.400;2023-04-25T01:43:59;5.43;;;1.92;;
69417;SDS011;56610;48.872;2.400;2023-04-25T01:46:26;5.57;;;2.50;;
69417;SDS011;56610;48.872;2.400;2023-04-25T01:48:51;6.03;;;2.15;;
69417;SDS011;56610;48.872;2.400;2023-04-25T01:51:17;5.45;;;2.55;;
69417;SDS011;56610;48.872;2.400;2023-04-25T01:53:43;3.83;;;2.30;;
69417;SDS011;56610;48.872;2.400;2023-04-25T01:56:08;5.68;;;2.42;;
69417;SDS011;56610;48.872;2.400;2023-04-25T01:58:34;6.28;;;2.55;;
69417;SDS011;56610;48.872;2.400;2023-04-25T02:01:00;6.05;;;2.40;;
69417;SDS011;56610;48.872;2.400;2023-04-25T02:03:26;5.18;;;2.70;;
69417;SDS011;56610;48.872;2.400;2023-04-25T02:05:51;6.13;;;2.63;;
69417;SDS011;56610;48.872;2.400;2023-04-25T02:08:17;8.52;;;2.58;;
69417;SDS011;56610;48.872;2.400;2023-04-25T02:10:43;6.88;;;2.80;;
69417;SDS011;56610;48.872;2.400;2023-04-25T02:13:08;6.60;;;2.50;;
69417;SDS011;56610;48.872;2.400;2023-04-25T02:15:54;5.90;;;2.90;;
69417;SDS011;56610;48.872;2.400;2023-04-25T02:18:20;4.93;;;2.38;;
69417;SDS011;56610;48.872;2.400;2023-04-25T02:20:46;7.35;;;2.47;;
69417;SDS011;56610;48.872;2.400;2023-04-25T02:23:11;7.43;;;2.90;;
69417;SDS011;56610;48.872;2.400;2023-04-25T02:25:37;8.25;;;3.00;;
69417;SDS011;56610;48.872;2.400;2023-04-25T02:28:03;5.93;;;2.25;;
69417;SDS011;56610;48.872;2.400;2023-04-25T02:30:28;6.90;;;2.78;;
69417;SDS011;56610;48.872;2.400;2023-04-25T02:32:54;5.13;;;2.58;;
69417;SDS011;56610;48.872;2.400;2023-04-25T02:35:20;6.72;;;2.53;;
69417;SDS011;56610;48.872;2.400;2023-04-25T02:37:45;6.93;;;2.65;;
69417;SDS011;56610;48.872;2.400;2023-04-25T02:40:11;7.03;;;3.15;;
69417;SDS011;56610;48.872;2.400;2023-04-25T02:42:37;7.03;;;2.85;;
69417;SDS011;56610;48.872;2.400;2023-04-25T02:45:02;12.48;;;3.13;;
69417;SDS011;56610;48.872;2.400;2023-04-25T02:47:28;6.00;;;2.85;;
69417;SDS011;56610;48.872;2.400;2023-04-25T02:49:54;7.68;;;3.33;;
69417;SDS011;56610;48.872;2.400;2023-04-25T02:52:20;9.45;;;3.35;;
69417;SDS011;56610;48.872;2.400;2023-04-25T02:54:46;6.65;;;2.90;;
69417;SDS011;56610;48.872;2.400;2023-04-25T02:57:12;8.82;;;3.28;;
69417;SDS011;56610;48.872;2.400;2023-04-25T02:59:37;6.40;;;3.20;;
69417;SDS011;56610;48.872;2.400;2023-04-25T03:02:03;8.00;;;3.25;;
69417;SDS011;56610;48.872;2.400;2023-04-25T03:04:29;9.90;;;3.53;;
69417;SDS011;56610;48.872;2.400;2023-04-25T03:06:54;6.80;;;3.53;;
69417;SDS011;56610;48.872;2.400;2023-04-25T03:09:20;9.60;;;3.55;;
69417;SDS011;56610;48.872;2.400;2023-04-25T03:11:46;9.38;;;3.35;;
69417;SDS011;56610;48.872;2.400;2023-04-25T03:14:12;8.57;;;3.28;;
69417;SDS011;56610;48.872;2.400;2023-04-25T03:16:38;6.28;;;3.65;;
69417;SDS011;56610;48.872;2.400;2023-04-25T03:19:04;10.18;;;3.80;;
69417;SDS011;56610;48.872;2.400;2023-04-25T03:21:30;5.30;;;3.20;;
69417;SDS011;56610;48.872;2.400;2023-04-25T03:23:57;10.68;;;3.90;;
69417;SDS011;56610;48.872;2.400;2023-04-25T03:26:23;8.35;;;3.60;;
69417;SDS011;56610;48.872;2.400;2023-04-25T03:28:49;7.82;;;3.38;;
69417;SDS011;56610;48.872;2.400;2023-04-25T03:31:15;8.52;;;3.75;;
69417;SDS011;56610;48.872;2.400;2023-04-25T03:33:40;10.00;;;4.03;;
69417;SDS011;56610;48.872;2.400;2023-04-25T03:36:06;8.55;;;3.80;;
69417;SDS011;56610;48.872;2.400;2023-04-25T03:38:32;7.63;;;3.75;;
69417;SDS011;56610;48.872;2.400;2023-04-25T03:40:57;6.40;;;3.22;;
69417;SDS011;56610;48.872;2.400;2023-04-25T03:43:23;8.07;;;3.53;;
69417;SDS011;56610;48.872;2.400;2023-04-25T03:45:49;8.85;;;3.53;;
69417;SDS011;56610;48.872;2.400;2023-04-25T03:48:14;6.35;;;3.10;;
69417;SDS011;56610;48.872;2.400;2023-04-25T03:50:40;9.43;;;3.60;;
69417;SDS011;56610;48.872;2.400;2023-04-25T03:53:06;8.13;;;3.63;;
69417;SDS011;56610;48.872;2.400;2023-04-25T03:55:31;8.90;;;3.45;;
69417;SDS011;56610;48.872;2.400;2023-04-25T03:57:57;6.65;;;3.17;;
69417;SDS011;56610;48.872;2.400;2023-04-25T04:00:23;10.73;;;3.72;;
69417;SDS011;56610;48.872;2.400;2023-04-25T04:02:49;9.30;;;3.38;;
69417;SDS011;56610;48.872;2.400;2023-04-25T04:05:15;8.50;;;2.88;;
69417;SDS011;56610;48.872;2.400;2023-04-25T04:07:40;7.68;;;3.20;;
69417;SDS011;56610;48.872;2.400;2023-04-25T04:10:07;8.90;;;3.95;;
69417;SDS011;56610;48.872;2.400;2023-04-25T04:12:34;6.95;;;2.83;;
69417;SDS011;56610;48.872;2.400;2023-04-25T04:14:59;9.00;;;3.50;;
69417;SDS011;56610;48.872;2.400;2023-04-25T04:17:25;7.45;;;3.42;;
69417;SDS011;56610;48.872;2.400;2023-04-25T04:19:51;6.57;;;3.58;;
69417;SDS011;56610;48.872;2.400;2023-04-25T04:22:17;6.35;;;3.33;;
69417;SDS011;56610;48.872;2.400;2023-04-25T04:24:42;8.00;;;3.53;;
69417;SDS011;56610;48.872;2.400;2023-04-25T04:27:11;9.00;;;3.80;;
69417;SDS011;56610;48.872;2.400;2023-04-25T04:29:37;5.72;;;3.65;;
69417;SDS011;56610;48.872;2.400;2023-04-25T04:32:03;9.40;;;3.80;;
69417;SDS011;56610;48.872;2.400;2023-04-25T04:34:30;8.48;;;4.22;;
69417;SDS011;56610;48.872;2.400;2023-04-25T04:36:56;8.38;;;4.28;;
69417;SDS011;56610;48.872;2.400;2023-04-25T04:39:22;8.20;;;3.78;;
69417;SDS011;56610;48.872;2.400;2023-04-25T04:41:47;11.73;;;4.20;;
69417;SDS011;56610;48.872;2.400;2023-04-25T04:44:13;9.80;;;3.67;;
69417;SDS011;56610;48.872;2.400;2023-04-25T04:46:39;8.73;;;3.88;;
69417;SDS011;56610;48.872;2.400;2023-04-25T04:49:09;7.20;;;3.75;;
69417;SDS011;56610;48.872;2.400;2023-04-25T04:51:35;7.57;;;3.88;;
69417;SDS011;56610;48.872;2.400;2023-04-25T04:54:03;10.03;;;3.93;;
69417;SDS011;56610;48.872;2.400;2023-04-25T04:56:29;7.90;;;3.70;;
69417;SDS011;56610;48.872;2.400;2023-04-25T04:58:58;7.43;;;3.80;;
69417;SDS011;56610;48.872;2.400;2023-04-25T05:01:24;5.43;;;3.15;;
69417;SDS011;56610;48.872;2.400;2023-04-25T05:03:50;5.88;;;4.03;;
69417;SDS011;56610;48.872;2.400;2023-04-25T05:06:17;9.10;;;4.25;;
69417;SDS011;56610;48.872;2.400;2023-04-25T05:08:43;8.63;;;4.72;;
69417;SDS011;56610;48.872;2.400;2023-04-25T05:11:09;8.57;;;4.07;;
69417;SDS011;56610;48.872;2.400;2023-04-25T05:13:35;9.15;;;4.18;;
69417;SDS011;56610;48.872;2.400;2023-04-25T05:16:00;8.90;;;4.28;;
69417;SDS011;56610;48.872;2.400;2023-04-25T05:18:26;7.18;;;4.53;;
69417;SDS011;56610;48.872;2.400;2023-04-25T05:20:51;8.27;;;4.47;;
69417;SDS011;56610;48.872;2.400;2023-04-25T05:23:18;6.85;;;4.60;;
69417;SDS011;56610;48.872;2.400;2023-04-25T05:25:43;9.35;;;4.63;;
69417;SDS011;56610;48.872;2.400;2023-04-25T05:28:10;8.23;;;4.38;;
69417;SDS011;56610;48.872;2.400;2023-04-25T05:33:03;8.82;;;5.30;;
69417;SDS011;56610;48.872;2.400;2023-04-25T05:35:28;12.63;;;5.40;;
69417;SDS011;56610;48.872;2.400;2023-04-25T05:37:54;8.65;;;5.07;;
69417;SDS011;56610;48.872;2.400;2023-04-25T05:40:19;9.27;;;5.93;;
69417;SDS011;56610;48.872;2.400;2023-04-25T05:42:45;12.48;;;5.72;;
69417;SDS011;56610;48.872;2.400;2023-04-25T05:45:11;10.15;;;6.13;;
69417;SDS011;56610;48.872;2.400;2023-04-25T05:47:36;8.98;;;6.28;;
69417;SDS011;56610;48.872;2.400;2023-04-25T05:50:02;10.55;;;6.57;;
69417;SDS011;56610;48.872;2.400;2023-04-25T05:52:29;11.60;;;6.40;;
69417;SDS011;56610;48.872;2.400;2023-04-25T05:54:54;10.77;;;6.85;;
69417;SDS011;56610;48.872;2.400;2023-04-25T05:57:24;8.50;;;5.75;;
69417;SDS011;56610;48.872;2.400;2023-04-25T05:59:51;10.68;;;6.07;;
69417;SDS011;56610;48.872;2.400;2023-04-25T06:02:18;12.35;;;6.00;;
69417;SDS011;56610;48.872;2.400;2023-04-25T06:04:44;12.20;;;5.35;;
69417;SDS011;56610;48.872;2.400;2023-04-25T06:07:10;8.35;;;5.40;;
69417;SDS011;56610;48.872;2.400;2023-04-25T06:09:35;8.38;;;4.90;;
69417;SDS011;56610;48.872;2.400;2023-04-25T06:12:01;11.27;;;5.53;;
69417;SDS011;56610;48.872;2.400;2023-04-25T06:14:27;7.88;;;4.75;;
69417;SDS011;56610;48.872;2.400;2023-04-25T06:16:52;7.03;;;4.40;;
69417;SDS011;56610;48.872;2.400;2023-04-25T06:19:18;6.93;;;4.53;;
69417;SDS011;56610;48.872;2.400;2023-04-25T06:21:44;8.38;;;4.78;;
69417;SDS011;56610;48.872;2.400;2023-04-25T06:24:09;7.53;;;4.25;;
69417;SDS011;56610;48.872;2.400;2023-04-25T06:26:35;8.82;;;3.88;;
69417;SDS011;56610;48.872;2.400;2023-04-25T06:29:01;8.02;;;4.28;;
69417;SDS011;56610;48.872;2.400;2023-04-25T06:31:26;5.63;;;3.20;;
69417;SDS011;56610;48.872;2.400;2023-04-25T06:33:53;5.45;;;2.88;;
69417;SDS011;56610;48.872;2.400;2023-04-25T06:36:20;5.53;;;3.03;;
69417;SDS011;56610;48.872;2.400;2023-04-25T06:38:50;3.25;;;2.53;;
69417;SDS011;56610;48.872;2.400;2023-04-25T06:41:17;3.60;;;2.67;;
69417;SDS011;56610;48.872;2.400;2023-04-25T06:43:42;5.00;;;2.70;;
69417;SDS011;56610;48.872;2.400;2023-04-25T06:46:08;5.00;;;2.85;;
69417;SDS011;56610;48.872;2.400;2023-04-25T06:48:34;4.50;;;2.67;;
69417;SDS011;56610;48.872;2.400;2023-04-25T06:51:00;4.03;;;2.50;;
69417;SDS011;56610;48.872;2.400;2023-04-25T06:53:25;4.30;;;2.53;;
69417;SDS011;56610;48.872;2.400;2023-04-25T06:55:51;2.83;;;2.28;;
69417;SDS011;56610;48.872;2.400;2023-04-25T06:58:17;3.35;;;3.05;;
69417;SDS011;56610;48.872;2.400;2023-04-25T07:00:42;3.88;;;2.70;;
69417;SDS011;56610;48.872;2.400;2023-04-25T07:03:08;4.60;;;3.10;;
69417;SDS011;56610;48.872;2.400;2023-04-25T07:05:34;3.60;;;3.30;;
69417;SDS011;56610;48.872;2.400;2023-04-25T07:08:00;4.85;;;4.00;;
69417;SDS011;56610;48.872;2.400;2023-04-25T07:10:26;7.25;;;3.63;;
69417;SDS011;56610;48.872;2.400;2023-04-25T07:12:52;5.30;;;4.57;;
69417;SDS011;56610;48.872;2.400;2023-04-25T07:15:17;6.53;;;5.88;;
69417;SDS011;56610;48.872;2.400;2023-04-25T07:17:43;7.07;;;6.28;;
69417;SDS011;56610;48.872;2.400;2023-04-25T07:20:08;7.30;;;6.60;;
69417;SDS011;56610;48.872;2.400;2023-04-25T07:22:35;7.10;;;6.40;;
69417;SDS011;56610;48.872;2.400;2023-04-25T07:25:01;7.03;;;6.32;;
69417;SDS011;56610;48.872;2.400;2023-04-25T07:27:26;8.85;;;6.72;;
69417;SDS011;56610;48.872;2.400;2023-04-25T07:29:52;7.22;;;6.53;;
69417;SDS011;56610;48.872;2.400;2023-04-25T07:32:18;9.10;;;7.22;;
69417;SDS011;56610;48.872;2.400;2023-04-25T07:34:44;7.78;;;6.55;;
69417;SDS011;56610;48.872;2.400;2023-04-25T07:37:10;9.73;;;7.18;;
69417;SDS011;56610;48.872;2.400;2023-04-25T07:39:35;11.77;;;8.13;;
69417;SDS011;56610;48.872;2.400;2023-04-25T07:42:02;11.57;;;6.97;;
69417;SDS011;56610;48.872;2.400;2023-04-25T07:44:28;12.48;;;8.05;;
69417;SDS011;56610;48.872;2.400;2023-04-25T07:46:55;11.90;;;8.50;;
69417;SDS011;56610;48.872;2.400;2023-04-25T07:49:21;13.75;;;8.43;;
69417;SDS011;56610;48.872;2.400;2023-04-25T07:51:46;14.00;;;8.70;;
69417;SDS011;56610;48.872;2.400;2023-04-25T07:54:13;13.20;;;7.45;;
69417;SDS011;56610;48.872;2.400;2023-04-25T07:56:40;10.93;;;7.30;;
69417;SDS011;56610;48.872;2.400;2023-04-25T07:59:05;11.77;;;7.53;;
69417;SDS011;56610;48.872;2.400;2023-04-25T08:01:31;10.95;;;7.30;;
69417;SDS011;56610;48.872;2.400;2023-04-25T08:03:57;9.88;;;6.97;;
69417;SDS011;56610;48.872;2.400;2023-04-25T08:06:22;11.55;;;6.70;;
69417;SDS011;56610;48.872;2.400;2023-04-25T08:08:48;12.10;;;7.47;;
69417;SDS011;56610;48.872;2.400;2023-04-25T08:11:13;13.48;;;7.50;;
69417;SDS011;56610;48.872;2.400;2023-04-25T08:13:39;11.90;;;7.20;;
69417;SDS011;56610;48.872;2.400;2023-04-25T08:16:04;12.10;;;7.60;;
69417;SDS011;56610;48.872;2.400;2023-04-25T08:18:30;10.30;;;6.72;;
69417;SDS011;56610;48.872;2.400;2023-04-25T08:20:56;13.73;;;7.68;;
69417;SDS011;56610;48.872;2.400;2023-04-25T08:23:21;13.45;;;6.85;;
69417;SDS011;56610;48.872;2.400;2023-04-25T08:25:47;9.68;;;6.28;;
69417;SDS011;56610;48.872;2.400;2023-04-25T08:28:13;7.70;;;5.65;;
69417;SDS011;56610;48.872;2.400;2023-04-25T08:30:38;9.60;;;6.65;;
69417;SDS011;56610;48.872;2.400;2023-04-25T08:33:05;10.73;;;6.60;;
69417;SDS011;56610;48.872;2.400;2023-04-25T08:35:31;12.60;;;6.93;;
69417;SDS011;56610;48.872;2.400;2023-04-25T08:37:58;7.93;;;5.80;;
69417;SDS011;56610;48.872;2.400;2023-04-25T08:40:23;8.27;;;5.10;;
69417;SDS011;56610;48.872;2.400;2023-04-25T08:42:55;8.20;;;5.70;;
69417;SDS011;56610;48.872;2.400;2023-04-25T08:45:22;8.95;;;5.00;;
69417;SDS011;56610;48.872;2.400;2023-04-25T08:47:48;10.65;;;5.45;;
69417;SDS011;56610;48.872;2.400;2023-04-25T08:50:17;8.60;;;5.70;;
69417;SDS011;56610;48.872;2.400;2023-04-25T08:52:46;9.95;;;6.22;;
69417;SDS011;56610;48.872;2.400;2023-04-25T08:55:13;9.98;;;5.40;;
69417;SDS011;56610;48.872;2.400;2023-04-25T08:57:41;9.52;;;5.13;;
69417;SDS011;56610;48.872;2.400;2023-04-25T09:00:08;10.13;;;5.55;;
69417;SDS011;56610;48.872;2.400;2023-04-25T09:05:02;11.82;;;5.95;;
69417;SDS011;56610;48.872;2.400;2023-04-25T09:07:29;8.52;;;5.35;;
69417;SDS011;56610;48.872;2.400;2023-04-25T09:09:55;7.07;;;5.03;;
69417;SDS011;56610;48.872;2.400;2023-04-25T09:12:20;10.65;;;6.13;;
69417;SDS011;56610;48.872;2.400;2023-04-25T09:17:32;8.50;;;4.85;;
69417;SDS011;56610;48.872;2.400;2023-04-25T09:20:11;7.72;;;4.50;;
69417;SDS011;56610;48.872;2.400;2023-04-25T09:22:38;6.60;;;4.38;;
69417;SDS011;56610;48.872;2.400;2023-04-25T09:25:07;6.20;;;4.30;;
69417;SDS011;56610;48.872;2.400;2023-04-25T09:27:48;9.13;;;4.72;;
69417;SDS011;56610;48.872;2.400;2023-04-25T09:30:19;8.93;;;4.53;;
69417;SDS011;56610;48.872;2.400;2023-04-25T09:33:08;6.50;;;5.20;;
69417;SDS011;56610;48.872;2.400;2023-04-25T09:35:38;10.02;;;5.38;;
69417;SDS011;56610;48.872;2.400;2023-04-25T09:38:11;6.25;;;4.07;;
69417;SDS011;56610;48.872;2.400;2023-04-25T09:40:42;6.80;;;3.97;;
69417;SDS011;56610;48.872;2.400;2023-04-25T09:43:26;6.72;;;4.97;;
69417;SDS011;56610;48.872;2.400;2023-04-25T09:45:53;10.45;;;5.93;;
69417;SDS011;56610;48.872;2.400;2023-04-25T09:48:22;9.00;;;5.55;;
69417;SDS011;56610;48.872;2.400;2023-04-25T09:51:05;9.33;;;5.07;;
69417;SDS011;56610;48.872;2.400;2023-04-25T09:53:35;9.30;;;5.15;;
69417;SDS011;56610;48.872;2.400;2023-04-25T09:56:06;7.88;;;4.88;;
69417;SDS011;56610;48.872;2.400;2023-04-25T09:58:33;8.70;;;4.97;;
69417;SDS011;56610;48.872;2.400;2023-04-25T10:01:01;8.95;;;5.28;;
69417;SDS011;56610;48.872;2.400;2023-04-25T10:03:31;7.28;;;4.85;;
69417;SDS011;56610;48.872;2.400;2023-04-25T10:06:02;9.75;;;5.28;;
69417;SDS011;56610;48.872;2.400;2023-04-25T10:08:33;9.93;;;5.43;;
69417;SDS011;56610;48.872;2.400;2023-04-25T10:11:03;10.85;;;5.15;;
69417;SDS011;56610;48.872;2.400;2023-04-25T10:13:33;7.93;;;4.63;;
69417;SDS011;56610;48.872;2.400;2023-04-25T10:16:04;6.78;;;4.13;;
69417;SDS011;56610;48.872;2.400;2023-04-25T10:18:30;5.97;;;4.18;;
69417;SDS011;56610;48.872;2.400;2023-04-25T10:23:42;8.50;;;4.35;;
69417;SDS011;56610;48.872;2.400;2023-04-25T10:26:09;6.25;;;4.00;;
69417;SDS011;56610;48.872;2.400;2023-04-25T10:31:34;10.53;;;4.80;;
69417;SDS011;56610;48.872;2.400;2023-04-25T10:34:10;7.43;;;4.28;;
69417;SDS011;56610;48.872;2.400;2023-04-25T10:36:36;8.65;;;4.90;;
69417;SDS011;56610;48.872;2.400;2023-04-25T10:39:03;7.63;;;4.70;;
69417;SDS011;56610;48.872;2.400;2023-04-25T10:41:32;7.30;;;4.35;;
69417;SDS011;56610;48.872;2.400;2023-04-25T10:44:12;9.82;;;4.40;;
69417;SDS011;56610;48.872;2.400;2023-04-25T10:46:38;7.47;;;4.57;;
69417;SDS011;56610;48.872;2.400;2023-04-25T10:49:04;8.50;;;4.05;;
69417;SDS011;56610;48.872;2.400;2023-04-25T10:51:30;5.05;;;3.08;;
69417;SDS011;56610;48.872;2.400;2023-04-25T10:53:58;6.70;;;3.75;;
69417;SDS011;56610;48.872;2.400;2023-04-25T10:56:58;7.72;;;3.33;;
69417;SDS011;56610;48.872;2.400;2023-04-25T10:59:16;3.83;;;3.05;;
69417;SDS011;56610;48.872;2.400;2023-04-25T11:01:44;5.60;;;3.33;;
69417;SDS011;56610;48.872;2.400;2023-04-25T11:04:19;5.35;;;3.00;;
69417;SDS011;56610;48.872;2.400;2023-04-25T11:09:35;6.47;;;3.38;;
69417;SDS011;56610;48.872;2.400;2023-04-25T11:12:03;5.95;;;3.38;;
69417;SDS011;56610;48.872;2.400;2023-04-25T11:14:29;6.53;;;3.20;;
69417;SDS011;56610;48.872;2.400;2023-04-25T11:16:56;6.35;;;3.65;;
69417;SDS011;56610;48.872;2.400;2023-04-25T11:19:23;5.95;;;3.35;;
69417;SDS011;56610;48.872;2.400;2023-04-25T11:21:49;7.95;;;3.30;;
69417;SDS011;56610;48.872;2.400;2023-04-25T11:24:15;5.47;;;3.30;;
69417;SDS011;56610;48.872;2.400;2023-04-25T11:26:42;6.07;;;3.15;;
69417;SDS011;56610;48.872;2.400;2023-04-25T11:29:08;7.20;;;3.70;;
69417;SDS011;56610;48.872;2.400;2023-04-25T11:31:34;6.15;;;3.65;;
69417;SDS011;56610;48.872;2.400;2023-04-25T11:33:59;5.60;;;2.85;;
69417;SDS011;56610;48.872;2.400;2023-04-25T11:36:25;5.72;;;2.80;;
69417;SDS011;56610;48.872;2.400;2023-04-25T11:38:52;6.75;;;3.30;;
69417;SDS011;56610;48.872;2.400;2023-04-25T11:41:18;5.43;;;3.10;;
69417;SDS011;56610;48.872;2.400;2023-04-25T11:43:45;5.93;;;3.33;;
69417;SDS011;56610;48.872;2.400;2023-04-25T11:46:11;6.90;;;3.63;;
69417;SDS011;56610;48.872;2.400;2023-04-25T11:48:45;5.78;;;3.40;;
69417;SDS011;56610;48.872;2.400;2023-04-25T11:51:12;4.97;;;3.25;;
69417;SDS011;56610;48.872;2.400;2023-04-25T11:53:40;5.88;;;3.53;;
69417;SDS011;56610;48.872;2.400;2023-04-25T11:56:10;7.95;;;3.50;;
69417;SDS011;56610;48.872;2.400;2023-04-25T11:58:57;7.53;;;3.65;;
69417;SDS011;56610;48.872;2.400;2023-04-25T12:01:31;5.93;;;2.92;;
69417;SDS011;56610;48.872;2.400;2023-04-25T12:04:18;5.25;;;2.72;;
69417;SDS011;56610;48.872;2.400;2023-04-25T12:06:45;7.90;;;3.80;;
69417;SDS011;56610;48.872;2.400;2023-04-25T12:09:13;5.68;;;3.20;;
69417;SDS011;56610;48.872;2.400;2023-04-25T12:11:41;8.82;;;3.42;;
69417;SDS011;56610;48.872;2.400;2023-04-25T12:14:11;10.48;;;3.70;;
69417;SDS011;56610;48.872;2.400;2023-04-25T12:16:43;9.45;;;4.10;;
69417;SDS011;56610;48.872;2.400;2023-04-25T12:19:13;6.07;;;3.33;;
69417;SDS011;56610;48.872;2.400;2023-04-25T12:21:40;7.10;;;3.50;;
69417;SDS011;56610;48.872;2.400;2023-04-25T12:24:09;7.53;;;3.40;;
69417;SDS011;56610;48.872;2.400;2023-04-25T12:26:47;7.00;;;3.55;;
69417;SDS011;56610;48.872;2.400;2023-04-25T12:29:15;6.35;;;3.15;;
69417;SDS011;56610;48.872;2.400;2023-04-25T12:31:42;6.18;;;3.47;;
69417;SDS011;56610;48.872;2.400;2023-04-25T12:34:07;7.35;;;3.40;;
69417;SDS011;56610;48.872;2.400;2023-04-25T12:36:33;7.53;;;3.40;;
69417;SDS011;56610;48.872;2.400;2023-04-25T12:38:59;8.65;;;3.33;;
69417;SDS011;56610;48.872;2.400;2023-04-25T12:41:29;7.65;;;3.92;;
69417;SDS011;56610;48.872;2.400;2023-04-25T12:43:55;9.07;;;3.92;;
69417;SDS011;56610;48.872;2.400;2023-04-25T12:46:20;8.85;;;3.60;;
69417;SDS011;56610;48.872;2.400;2023-04-25T12:48:47;6.73;;;3.40;;
69417;SDS011;56610;48.872;2.400;2023-04-25T12:51:13;8.43;;;3.25;;
69417;SDS011;56610;48.872;2.400;2023-04-25T12:53:38;10.07;;;3.70;;
69417;SDS011;56610;48.872;2.400;2023-04-25T12:56:05;6.10;;;3.13;;
69417;SDS011;56610;48.872;2.400;2023-04-25T12:58:32;8.75;;;3.80;;
69417;SDS011;56610;48.872;2.400;2023-04-25T13:00:58;8.25;;;3.72;;
69417;SDS011;56610;48.872;2.400;2023-04-25T13:03:24;8.20;;;4.10;;
69417;SDS011;56610;48.872;2.400;2023-04-25T13:05:50;8.32;;;3.70;;
69417;SDS011;56610;48.872;2.400;2023-04-25T13:08:17;8.95;;;3.78;;
69417;SDS011;56610;48.872;2.400;2023-04-25T13:10:43;6.78;;;3.63;;
69417;SDS011;56610;48.872;2.400;2023-04-25T13:13:09;10.40;;;4.20;;
69417;SDS011;56610;48.872;2.400;2023-04-25T13:15:34;10.90;;;4.47;;
69417;SDS011;56610;48.872;2.400;2023-04-25T13:18:00;8.65;;;4.30;;
69417;SDS011;56610;48.872;2.400;2023-04-25T13:20:26;11.00;;;3.75;;
69417;SDS011;56610;48.872;2.400;2023-04-25T13:22:51;9.50;;;4.00;;
69417;SDS011;56610;48.872;2.400;2023-04-25T13:25:17;9.13;;;3.50;;
69417;SDS011;56610;48.872;2.400;2023-04-25T13:27:43;7.95;;;3.90;;
69417;SDS011;56610;48.872;2.400;2023-04-25T13:30:09;6.82;;;3.10;;
69417;SDS011;56610;48.872;2.400;2023-04-25T13:32:36;6.50;;;3.53;;
69417;SDS011;56610;48.872;2.400;2023-04-25T13:35:03;4.43;;;2.42;;
69417;SDS011;56610;48.872;2.400;2023-04-25T13:37:30;7.10;;;2.97;;
69417;SDS011;56610;48.872;2.400;2023-04-25T13:39:58;6.67;;;2.63;;
69417;SDS011;56610;48.872;2.400;2023-04-25T13:42:24;5.55;;;3.03;;
69417;SDS011;56610;48.872;2.400;2023-04-25T13:44:50;5.43;;;2.28;;
69417;SDS011;56610;48.872;2.400;2023-04-25T13:47:16;6.90;;;3.17;;
69417;SDS011;56610;48.872;2.400;2023-04-25T13:49:41;5.65;;;2.60;;
69417;SDS011;56610;48.872;2.400;2023-04-25T13:52:07;4.20;;;2.33;;
69417;SDS011;56610;48.872;2.400;2023-04-25T13:54:33;5.70;;;2.47;;
69417;SDS011;56610;48.872;2.400;2023-04-25T13:56:58;5.60;;;3.00;;
69417;SDS011;56610;48.872;2.400;2023-04-25T13:59:24;7.63;;;3.10;;
69417;SDS011;56610;48.872;2.400;2023-04-25T14:01:50;6.18;;;3.00;;
69417;SDS011;56610;48.872;2.400;2023-04-25T14:04:16;6.13;;;2.60;;
69417;SDS011;56610;48.872;2.400;2023-04-25T14:06:42;6.32;;;2.42;;
69417;SDS011;56610;48.872;2.400;2023-04-25T14:09:07;5.57;;;2.53;;
69417;SDS011;56610;48.872;2.400;2023-04-25T14:11:36;5.45;;;3.13;;
69417;SDS011;56610;48.872;2.400;2023-04-25T14:14:03;8.07;;;3.28;;
69417;SDS011;56610;48.872;2.400;2023-04-25T14:16:29;4.82;;;2.33;;
69417;SDS011;56610;48.872;2.400;2023-04-25T14:18:56;5.55;;;2.53;;
69417;SDS011;56610;48.872;2.400;2023-04-25T14:21:22;4.45;;;2.25;;
69417;SDS011;56610;48.872;2.400;2023-04-25T14:23:48;6.28;;;2.40;;
69417;SDS011;56610;48.872;2.400;2023-04-25T14:26:15;5.22;;;2.42;;
69417;SDS011;56610;48.872;2.400;2023-04-25T14:28:41;5.18;;;2.30;;
69417;SDS011;56610;48.872;2.400;2023-04-25T14:31:06;6.15;;;2.28;;
69417;SDS011;56610;48.872;2.400;2023-04-25T14:33:32;5.93;;;2.50;;
69417;SDS011;56610;48.872;2.400;2023-04-25T14:35:58;6.90;;;2.60;;
69417;SDS011;56610;48.872;2.400;2023-04-25T14:38:23;6.80;;;2.25;;
69417;SDS011;56610;48.872;2.400;2023-04-25T14:40:50;5.18;;;2.00;;
69417;SDS011;56610;48.872;2.400;2023-04-25T14:43:16;4.97;;;2.10;;
69417;SDS011;56610;48.872;2.400;2023-04-25T14:45:41;6.20;;;2.00;;
69417;SDS011;56610;48.872;2.400;2023-04-25T14:48:07;7.30;;;2.17;;
69417;SDS011;56610;48.872;2.400;2023-04-25T14:50:33;5.40;;;2.10;;
69417;SDS011;56610;48.872;2.400;2023-04-25T14:52:58;5.43;;;2.20;;
69417;SDS011;56610;48.872;2.400;2023-04-25T14:55:25;5.15;;;2.50;;
69417;SDS011;56610;48.872;2.400;2023-04-25T14:57:52;8.88;;;2.58;;
69417;SDS011;56610;48.872;2.400;2023-04-25T15:00:19;6.10;;;2.42;;